createdAt,value
2019-06-08T00:05:03.373Z,23.3
2019-06-08T00:20:05.221Z,23.2
2019-06-08T00:35:03.323Z,23
2019-06-08T00:50:04.575Z,22.9
2019-06-08T01:05:05.888Z,22.8
2019-06-08T01:20:05.307Z,22.7
2019-06-08T01:35:03.371Z,22.5
2019-06-08T01:50:04.694Z,22.5
2019-06-08T02:05:05.706Z,22.4
2019-06-08T02:20:05.844Z,22.3
2019-06-08T02:35:03.129Z,22.3
2019-06-08T02:50:04.059Z,22.2
2019-06-08T03:05:04.262Z,22.2
2019-06-08T03:20:04.623Z,22.1
2019-06-08T03:35:05.063Z,22.1
2019-06-08T03:50:04.973Z,22
2019-06-08T04:05:03.567Z,22
2019-06-08T04:20:10.848Z,22
2019-06-08T04:35:05.462Z,21.9
2019-06-08T04:50:20.734Z,21.9
2019-06-08T05:05:05.045Z,21.9
2019-06-08T05:20:05.318Z,21.9
2019-06-08T05:35:04.258Z,21.9
2019-06-08T05:50:05.449Z,21.9
2019-06-08T06:05:04.393Z,21.9
2019-06-08T06:20:04.765Z,21.9
2019-06-08T06:35:08.763Z,21.9
2019-06-08T06:50:06.971Z,21.9
2019-06-08T07:05:03.324Z,21.9
2019-06-08T07:20:06.727Z,21.9
2019-06-08T07:35:13.201Z,22
2019-06-08T07:50:05.391Z,22
2019-06-08T08:05:04.673Z,22
2019-06-08T08:20:04.889Z,22.1
2019-06-08T08:35:04.511Z,22.1
2019-06-08T08:50:04.670Z,22.1
2019-06-08T09:05:08.482Z,22.2
2019-06-08T09:20:08.857Z,22.2
2019-06-08T09:35:05.427Z,22.2
2019-06-08T09:50:08.944Z,22.3
2019-06-08T10:05:06.295Z,22.3
2019-06-08T10:20:09.598Z,22.3
2019-06-08T10:35:05.072Z,22.4
2019-06-08T10:50:08.767Z,22.5
2019-06-08T11:05:07.947Z,22.5
2019-06-08T11:20:06.784Z,22.6
2019-06-08T11:35:06.512Z,22.6
2019-06-08T11:50:06.574Z,22.7
2019-06-08T12:05:11.225Z,22.7
2019-06-08T12:20:05.424Z,22.9
2019-06-08T12:35:05.149Z,22.9
2019-06-08T12:50:03.567Z,23
2019-06-08T13:05:05.733Z,23
2019-06-08T13:20:07.832Z,23
2019-06-08T13:35:03.295Z,23.1
2019-06-08T13:50:08.219Z,23.1
2019-06-08T14:05:04.475Z,23.1
2019-06-08T14:20:07.887Z,23.2
2019-06-08T14:35:03.730Z,23.2
2019-06-08T14:50:07.946Z,23.3
2019-06-08T15:05:04.030Z,23.4
2019-06-08T15:20:05.803Z,23.5
2019-06-08T15:35:07.787Z,23.6
2019-06-08T15:50:04.718Z,23.7
2019-06-08T16:05:07.237Z,23.8
2019-06-08T16:20:04.143Z,24
2019-06-08T16:35:04.710Z,24
2019-06-08T16:50:07.523Z,24.3
2019-06-08T17:05:04.874Z,24.5
2019-06-08T17:20:08.313Z,24.8
2019-06-08T17:35:05.509Z,25
2019-06-08T17:50:04.881Z,25.1
2019-06-08T18:05:06.906Z,25.1
2019-06-08T18:20:07.817Z,25.1
2019-06-08T18:35:02.974Z,25.2
2019-06-08T18:50:03.966Z,25.1
2019-06-08T19:05:04.250Z,24.9
2019-06-08T19:20:03.942Z,24.5
2019-06-08T19:35:03.289Z,24.3
2019-06-08T19:50:03.732Z,24.1
2019-06-08T20:05:07.575Z,23.9
2019-06-08T20:20:07.239Z,23.7
2019-06-08T20:35:04.154Z,23.6
2019-06-08T20:50:03.608Z,23.4
2019-06-08T21:05:04.221Z,23.3
2019-06-08T21:20:08.614Z,23.2
2019-06-08T21:35:07.608Z,23.2
2019-06-08T21:50:08.001Z,23.1
2019-06-08T22:05:04.737Z,23.1
2019-06-08T22:20:03.475Z,23.1
2019-06-08T22:35:04.727Z,23.1
2019-06-08T22:50:07.890Z,23
2019-06-08T23:05:04.681Z,23
2019-06-08T23:20:03.707Z,23
2019-06-08T23:35:07.839Z,23
2019-06-08T23:50:10.921Z,22.9
